createdAt,value
2018-01-13T00:01:09.281Z,79.13
2018-01-13T00:03:36.769Z,72.17
2018-01-13T00:06:04.259Z,76.23
2018-01-13T00:08:31.742Z,68.30
2018-01-13T00:11:00.021Z,82.13
2018-01-13T00:13:28.272Z,78.43
2018-01-13T00:15:55.755Z,75.97
2018-01-13T00:18:23.281Z,73.40
2018-01-13T00:20:50.766Z,71.60
2018-01-13T00:23:18.280Z,72.77
2018-01-13T00:25:45.795Z,101.20
2018-01-13T00:28:14.079Z,86.90
2018-01-13T00:30:41.595Z,79.63
2018-01-13T00:33:09.081Z,82.50
2018-01-13T00:35:36.656Z,94.93
2018-01-13T00:38:04.154Z,92.03
2018-01-13T00:40:31.657Z,111.43
2018-01-13T00:42:59.945Z,101.57
2018-01-13T00:45:27.444Z,109.10
2018-01-13T00:47:54.936Z,93.03
2018-01-13T00:50:22.454Z,97.80
2018-01-13T00:52:49.959Z,105.53
2018-01-13T00:55:18.220Z,101.80
2018-01-13T00:57:45.716Z,91.10
2018-01-13T01:00:13.225Z,104.30
2018-01-13T01:02:40.725Z,99.83
2018-01-13T01:05:08.196Z,100.73
2018-01-13T01:07:36.529Z,90.13
2018-01-13T01:10:04.015Z,92.10
2018-01-13T01:12:31.508Z,96.53
2018-01-13T01:14:59.005Z,85.47
2018-01-13T01:17:26.514Z,84.27
2018-01-13T01:19:54.016Z,90.83
2018-01-13T01:22:21.540Z,106.70
2018-01-13T01:24:49.356Z,83.87
2018-01-13T01:27:16.842Z,77.37
2018-01-13T01:29:44.354Z,84.93
2018-01-13T01:32:11.877Z,94.63
2018-01-13T01:34:40.155Z,82.30
2018-01-13T01:37:08.509Z,91.97
2018-01-13T01:39:36.032Z,95.97
2018-01-13T01:42:04.316Z,87.80
2018-01-13T01:44:32.691Z,79.00
2018-01-13T01:47:00.150Z,74.60
2018-01-13T01:49:27.715Z,68.13
2018-01-13T01:51:55.974Z,68.97
2018-01-13T01:54:23.501Z,52.33
2018-01-13T01:56:51.784Z,63.53
2018-01-13T01:59:19.254Z,63.80
2018-01-13T02:01:46.739Z,56.53
2018-01-13T02:04:15.045Z,54.33
2018-01-13T02:06:42.593Z,53.87
2018-01-13T02:09:10.126Z,46.23
2018-01-13T02:11:37.640Z,54.60
2018-01-13T02:14:05.143Z,56.50
2018-01-13T02:16:33.400Z,55.33
2018-01-13T02:19:00.932Z,61.03
2018-01-13T02:21:28.436Z,49.07
2018-01-13T02:23:55.917Z,65.07
2018-01-13T02:26:23.426Z,49.67
2018-01-13T02:28:50.914Z,47.77
2018-01-13T02:31:19.213Z,51.03
2018-01-13T02:33:46.707Z,46.73
2018-01-13T02:36:14.277Z,40.97
2018-01-13T02:38:41.793Z,45.33
2018-01-13T02:41:09.302Z,46.63
2018-01-13T02:43:36.847Z,40.53
2018-01-13T02:46:04.344Z,40.53
2018-01-13T02:48:32.645Z,45.27
2018-01-13T02:51:00.889Z,40.93
2018-01-13T02:53:28.424Z,44.70
2018-01-13T02:55:55.949Z,38.17
2018-01-13T02:58:23.471Z,35.23
2018-01-13T03:00:51.726Z,31.83
2018-01-13T03:03:19.235Z,33.73
2018-01-13T03:05:46.738Z,37.10
2018-01-13T03:08:14.322Z,39.60
2018-01-13T03:10:42.634Z,39.43
2018-01-13T03:13:10.131Z,36.93
2018-01-13T03:15:39.162Z,36.00
2018-01-13T03:18:06.692Z,41.73
2018-01-13T03:20:35.456Z,43.53
2018-01-13T03:23:02.966Z,39.13
2018-01-13T03:25:30.468Z,39.70
2018-01-13T03:27:58.013Z,35.77
2018-01-13T03:30:25.514Z,39.10
2018-01-13T03:32:53.825Z,42.77
2018-01-13T03:35:21.360Z,40.60
2018-01-13T03:37:48.879Z,35.90
2018-01-13T03:40:17.185Z,37.80
2018-01-13T03:42:45.469Z,32.63
2018-01-13T03:45:13.727Z,37.73
2018-01-13T03:47:41.262Z,36.50
2018-01-13T03:50:09.005Z,36.67
2018-01-13T03:52:36.530Z,41.50
2018-01-13T03:55:04.046Z,40.07
2018-01-13T03:57:32.343Z,37.07
2018-01-13T04:00:00.633Z,44.53
2018-01-13T04:02:28.127Z,41.17
2018-01-13T04:04:55.907Z,35.80
2018-01-13T04:07:23.513Z,46.70
2018-01-13T04:09:51.147Z,43.77
2018-01-13T04:12:18.615Z,43.40
2018-01-13T04:14:46.118Z,39.57
2018-01-13T04:17:13.618Z,36.80
2018-01-13T04:19:41.115Z,36.53
2018-01-13T04:22:09.439Z,40.07
2018-01-13T04:24:36.943Z,44.07
2018-01-13T04:27:05.249Z,40.43
2018-01-13T04:29:32.777Z,38.43
2018-01-13T04:32:00.322Z,40.10
2018-01-13T04:34:28.609Z,43.97
2018-01-13T04:36:56.919Z,46.80
2018-01-13T04:39:24.450Z,41.63
2018-01-13T04:41:51.992Z,41.60
2018-01-13T04:44:19.568Z,40.93
2018-01-13T04:46:47.843Z,51.70
2018-01-13T04:49:16.126Z,45.67
2018-01-13T04:51:43.610Z,43.10
2018-01-13T04:54:11.482Z,44.97
2018-01-13T04:56:38.987Z,37.30
2018-01-13T04:59:06.491Z,42.30
2018-01-13T05:01:34.022Z,39.87
2018-01-13T05:04:01.541Z,40.17
2018-01-13T05:06:29.061Z,50.83
2018-01-13T05:08:56.585Z,41.47
2018-01-13T05:11:24.111Z,40.17
2018-01-13T05:13:51.684Z,37.87
2018-01-13T05:16:19.168Z,43.67
2018-01-13T05:18:47.455Z,43.77
2018-01-13T05:21:15.013Z,43.47
2018-01-13T05:23:43.267Z,47.90
2018-01-13T05:26:10.828Z,44.23
2018-01-13T05:28:38.338Z,39.33
2018-01-13T05:31:05.843Z,44.07
2018-01-13T05:33:34.128Z,43.70
2018-01-13T05:36:02.414Z,38.33
2018-01-13T05:38:29.927Z,39.20
2018-01-13T05:40:57.423Z,46.00
2018-01-13T05:43:24.936Z,44.63
2018-01-13T05:45:52.471Z,39.63
2018-01-13T05:48:20.067Z,33.07
2018-01-13T05:50:48.380Z,43.73
2018-01-13T05:53:16.631Z,35.83
2018-01-13T05:55:44.227Z,45.33
2018-01-13T05:58:11.731Z,47.47
2018-01-13T06:00:39.278Z,43.33
2018-01-13T06:03:06.817Z,37.63
2018-01-13T06:05:34.378Z,41.80
2018-01-13T06:08:01.902Z,49.43
2018-01-13T06:10:30.212Z,50.43
2018-01-13T06:12:57.733Z,35.23
2018-01-13T06:15:25.266Z,37.63
2018-01-13T06:17:52.807Z,33.83
2018-01-13T06:20:20.383Z,32.77
2018-01-13T06:22:50.168Z,42.40
2018-01-13T06:25:17.773Z,43.07
2018-01-13T06:27:46.131Z,29.53
2018-01-13T06:30:13.666Z,38.67
2018-01-13T06:32:41.258Z,29.20
2018-01-13T06:35:09.373Z,27.00
2018-01-13T06:37:36.866Z,33.73
2018-01-13T06:40:04.443Z,31.40
2018-01-13T06:42:31.930Z,36.83
2018-01-13T06:45:00.994Z,42.17
2018-01-13T06:47:28.524Z,38.83
2018-01-13T06:49:56.967Z,40.50
2018-01-13T06:52:26.041Z,44.10
2018-01-13T06:54:53.758Z,45.77
2018-01-13T06:57:23.751Z,32.53
2018-01-13T06:59:51.556Z,39.33
2018-01-13T07:02:19.055Z,44.50
2018-01-13T07:04:47.323Z,47.03
2018-01-13T07:07:14.845Z,30.80
2018-01-13T07:09:42.361Z,42.37
2018-01-13T07:12:09.905Z,54.17
2018-01-13T07:14:37.460Z,38.30
2018-01-13T07:17:04.994Z,35.40
2018-01-13T07:19:32.523Z,36.47
2018-01-13T07:22:00.040Z,44.97
2018-01-13T07:24:27.602Z,32.63
2018-01-13T07:26:55.146Z,32.87
2018-01-13T07:29:23.447Z,45.00
2018-01-13T07:31:51.750Z,41.33
2018-01-13T07:34:19.276Z,41.67
2018-01-13T07:36:46.890Z,38.10
2018-01-13T07:39:14.458Z,38.60
2018-01-13T07:41:43.327Z,36.37
2018-01-13T07:44:14.151Z,38.23
2018-01-13T07:46:41.722Z,31.70
2018-01-13T07:49:09.337Z,40.00
2018-01-13T07:51:36.887Z,32.63
2018-01-13T07:54:07.421Z,35.40
2018-01-13T07:56:34.899Z,33.10
2018-01-13T07:59:02.395Z,31.00
2018-01-13T08:01:29.904Z,37.97
2018-01-13T08:03:57.391Z,36.57
2018-01-13T08:06:24.901Z,33.23
2018-01-13T08:08:59.104Z,34.67
2018-01-13T08:11:26.656Z,35.43
2018-01-13T08:13:54.198Z,39.93
2018-01-13T08:16:21.754Z,39.23
2018-01-13T08:18:49.315Z,40.53
2018-01-13T08:21:16.831Z,41.30
2018-01-13T08:23:44.318Z,39.70
2018-01-13T08:26:11.817Z,41.50
2018-01-13T08:28:39.319Z,41.03
2018-01-13T08:31:07.571Z,43.63
2018-01-13T08:33:35.108Z,37.67
2018-01-13T08:36:02.591Z,36.03
2018-01-13T08:38:30.123Z,35.00
2018-01-13T08:40:57.622Z,36.63
2018-01-13T08:43:25.167Z,30.57
2018-01-13T08:45:52.667Z,38.70
2018-01-13T08:48:20.172Z,32.37
2018-01-13T08:50:47.689Z,35.83
2018-01-13T08:53:15.202Z,39.40
2018-01-13T08:55:42.730Z,35.03
2018-01-13T08:58:10.215Z,34.23
2018-01-13T09:00:38.482Z,25.73
2018-01-13T09:03:06.782Z,28.30
2018-01-13T09:05:34.307Z,27.60
2018-01-13T09:08:01.801Z,28.33
2018-01-13T09:10:29.312Z,22.23
2018-01-13T09:12:56.830Z,21.03
2018-01-13T09:15:24.338Z,26.37
2018-01-13T09:17:51.861Z,32.07
2018-01-13T09:20:19.348Z,29.13
2018-01-13T09:22:46.876Z,35.63
2018-01-13T09:25:14.382Z,29.50
2018-01-13T09:27:42.911Z,24.13
2018-01-13T09:30:10.467Z,20.63
2018-01-13T09:32:37.995Z,15.20
2018-01-13T09:35:05.508Z,19.90
2018-01-13T09:37:32.994Z,14.87
2018-01-13T09:40:01.567Z,23.60
2018-01-13T09:42:29.083Z,26.47
2018-01-13T09:44:56.598Z,29.10
2018-01-13T09:47:24.450Z,28.33
2018-01-13T09:49:52.366Z,28.13
2018-01-13T09:52:19.932Z,27.00
2018-01-13T09:54:47.452Z,27.60
2018-01-13T09:57:15.000Z,27.90
2018-01-13T09:59:43.283Z,32.10
2018-01-13T10:02:11.571Z,27.50
2018-01-13T10:04:39.844Z,29.13
2018-01-13T10:07:07.396Z,26.50
2018-01-13T10:09:35.650Z,26.33
2018-01-13T10:12:03.154Z,19.13
2018-01-13T10:14:30.660Z,24.37
2018-01-13T10:16:58.192Z,23.37
2018-01-13T10:19:25.695Z,10.87
2018-01-13T10:21:53.210Z,15.03
2018-01-13T10:24:20.733Z,21.03
2018-01-13T10:26:48.220Z,21.83
2018-01-13T10:29:15.703Z,17.10
2018-01-13T10:31:43.230Z,22.07
2018-01-13T10:34:10.729Z,16.40
2018-01-13T10:36:39.099Z,17.10
2018-01-13T10:39:06.599Z,18.77
2018-01-13T10:41:34.086Z,23.03
2018-01-13T10:44:01.614Z,18.67
2018-01-13T10:46:29.152Z,19.13
2018-01-13T10:48:56.642Z,17.73
2018-01-13T10:51:24.152Z,17.73
2018-01-13T10:53:51.671Z,14.43
2018-01-13T10:56:19.190Z,19.13
2018-01-13T10:58:47.480Z,19.70
2018-01-13T11:01:15.748Z,16.80
2018-01-13T11:03:44.022Z,16.80
2018-01-13T11:06:11.497Z,18.73
2018-01-13T11:08:38.998Z,22.40
2018-01-13T11:11:06.556Z,18.20
2018-01-13T11:13:34.047Z,16.50
2018-01-13T11:16:01.537Z,23.20
2018-01-13T11:18:29.075Z,27.00
2018-01-13T11:20:56.627Z,20.40
2018-01-13T11:23:24.189Z,21.50
2018-01-13T11:25:51.757Z,28.90
2018-01-13T11:28:19.317Z,20.90
2018-01-13T11:30:47.061Z,21.50
2018-01-13T11:33:14.586Z,21.50
2018-01-13T11:35:44.179Z,18.80
2018-01-13T11:38:11.666Z,21.50
2018-01-13T11:40:39.200Z,21.60
2018-01-13T11:43:06.700Z,18.77
2018-01-13T11:45:34.242Z,22.23
2018-01-13T11:48:01.819Z,25.83
2018-01-13T11:50:30.089Z,22.73
2018-01-13T11:52:57.590Z,18.90
2018-01-13T11:55:25.086Z,21.90
2018-01-13T11:57:52.653Z,21.90
2018-01-13T12:00:20.184Z,16.80
2018-01-13T12:02:47.799Z,19.87
2018-01-13T12:05:15.379Z,22.67
2018-01-13T12:07:42.898Z,21.83
2018-01-13T12:10:10.401Z,25.37
2018-01-13T12:12:37.943Z,29.17
2018-01-13T12:15:05.477Z,21.00
2018-01-13T12:17:33.006Z,21.57
2018-01-13T12:20:00.522Z,25.33
2018-01-13T12:22:28.332Z,25.50
2018-01-13T12:24:55.833Z,22.97
2018-01-13T12:27:25.038Z,26.07
2018-01-13T12:29:54.307Z,23.73
2018-01-13T12:32:22.601Z,23.40
2018-01-13T12:34:50.467Z,22.30
2018-01-13T12:37:17.910Z,27.63
2018-01-13T12:39:45.413Z,27.50
2018-01-13T12:42:12.932Z,28.50
2018-01-13T12:44:40.423Z,23.37
2018-01-13T12:47:08.527Z,25.63
2018-01-13T12:49:36.011Z,28.57
2018-01-13T12:52:03.523Z,28.03
2018-01-13T12:54:31.026Z,23.37
2018-01-13T12:56:58.568Z,24.77
2018-01-13T12:59:26.077Z,19.73
2018-01-13T13:01:53.564Z,24.17
2018-01-13T13:04:21.061Z,29.17
2018-01-13T13:06:48.567Z,21.47
2018-01-13T13:09:16.064Z,23.90
2018-01-13T13:11:43.852Z,22.23
2018-01-13T13:14:12.174Z,19.80
2018-01-13T13:16:39.677Z,22.53
2018-01-13T13:19:07.242Z,26.33
2018-01-13T13:21:34.763Z,21.83
2018-01-13T13:24:02.605Z,23.90
2018-01-13T13:26:30.124Z,21.13
2018-01-13T13:28:57.659Z,22.87
2018-01-13T13:31:27.568Z,19.33
2018-01-13T13:33:55.077Z,21.33
2018-01-13T13:36:22.623Z,25.20
2018-01-13T13:38:50.912Z,19.77
2018-01-13T13:41:18.406Z,21.07
2018-01-13T13:43:45.912Z,24.87
2018-01-13T13:46:14.173Z,24.23
2018-01-13T13:48:41.715Z,15.67
2018-01-13T13:51:09.230Z,18.67
2018-01-13T13:53:37.025Z,17.23
2018-01-13T13:56:04.528Z,17.30
2018-01-13T13:58:32.014Z,23.07
2018-01-13T14:01:22.123Z,19.50
2018-01-13T14:03:27.075Z,20.40
2018-01-13T14:05:54.591Z,17.80
2018-01-13T14:08:22.104Z,19.40
2018-01-13T14:10:49.584Z,20.63
2018-01-13T14:13:17.855Z,21.57
2018-01-13T14:15:46.165Z,20.80
2018-01-13T14:18:13.662Z,24.93
2018-01-13T14:20:41.173Z,20.70
2018-01-13T14:23:08.680Z,18.93
2018-01-13T14:25:36.208Z,21.37
2018-01-13T14:28:03.708Z,23.17
2018-01-13T14:30:31.211Z,26.33
2018-01-13T14:32:58.740Z,22.07
2018-01-13T14:35:26.428Z,23.57
2018-01-13T14:37:54.222Z,21.43
2018-01-13T14:40:21.745Z,21.50
2018-01-13T14:42:49.264Z,21.53
2018-01-13T14:45:16.766Z,23.67
2018-01-13T14:47:44.587Z,24.50
2018-01-13T14:50:12.159Z,20.47
2018-01-13T14:52:40.425Z,18.97
2018-01-13T14:55:07.956Z,23.83
2018-01-13T14:57:35.475Z,20.30
2018-01-13T15:00:02.988Z,19.17
2018-01-13T15:02:30.529Z,22.80
2018-01-13T15:04:58.797Z,21.90
2018-01-13T15:07:26.319Z,20.80
2018-01-13T15:09:54.040Z,15.13
2018-01-13T15:12:21.549Z,22.70
2018-01-13T15:14:49.074Z,22.17
2018-01-13T15:17:16.612Z,13.93
2018-01-13T15:19:44.200Z,18.83
2018-01-13T15:22:11.664Z,21.93
2018-01-13T15:24:39.938Z,13.03
2018-01-13T15:27:08.196Z,23.00
2018-01-13T15:29:36.486Z,21.77
2018-01-13T15:32:04.025Z,19.27
2018-01-13T15:34:31.537Z,20.67
2018-01-13T15:36:59.050Z,18.27
2018-01-13T15:39:29.477Z,24.10
2018-01-13T15:41:58.268Z,22.53
2018-01-13T15:44:26.032Z,21.73
2018-01-13T15:46:53.753Z,19.13
2018-01-13T15:49:21.483Z,29.60
2018-01-13T15:51:49.315Z,21.80
2018-01-13T15:54:17.158Z,21.50
2018-01-13T15:56:44.923Z,21.50
2018-01-13T15:59:12.426Z,18.93
2018-01-13T16:01:39.929Z,21.37
2018-01-13T16:04:07.429Z,17.10
2018-01-13T16:06:35.709Z,24.80
2018-01-13T16:09:03.219Z,22.20
2018-01-13T16:11:30.753Z,18.17
2018-01-13T16:13:58.305Z,19.17
2018-01-13T16:16:25.820Z,20.47
2018-01-13T16:18:53.375Z,16.10
2018-01-13T16:21:20.948Z,19.33
2018-01-13T16:23:48.525Z,18.40
2018-01-13T16:26:16.780Z,21.90
2018-01-13T16:28:44.273Z,22.57
2018-01-13T16:31:11.821Z,20.30
2018-01-13T16:33:39.340Z,22.70
2018-01-13T16:36:06.842Z,20.60
2018-01-13T16:38:34.333Z,19.37
2018-01-13T16:41:01.859Z,20.00
2018-01-13T16:43:29.374Z,20.90
2018-01-13T16:45:56.871Z,20.77
2018-01-13T16:48:24.387Z,20.63
2018-01-13T16:50:52.657Z,26.50
2018-01-13T16:53:20.180Z,17.80
2018-01-13T16:55:47.676Z,19.00
2018-01-13T16:58:15.852Z,22.37
2018-01-13T17:00:43.380Z,26.33
2018-01-13T17:03:10.893Z,18.37
2018-01-13T17:05:39.170Z,20.80
2018-01-13T17:08:07.454Z,25.20
2018-01-13T17:10:35.001Z,23.83
2018-01-13T17:13:02.662Z,18.77
2018-01-13T17:15:30.158Z,22.23
2018-01-13T17:17:58.442Z,22.27
2018-01-13T17:20:25.941Z,22.80
2018-01-13T17:22:53.493Z,26.50
2018-01-13T17:25:21.002Z,26.80
2018-01-13T17:27:48.581Z,21.87
2018-01-13T17:30:16.101Z,20.13
2018-01-13T17:32:43.654Z,20.10
2018-01-13T17:35:11.241Z,19.60
2018-01-13T17:37:39.499Z,19.17
2018-01-13T17:40:08.768Z,21.53
2018-01-13T17:42:36.726Z,23.00
2018-01-13T17:45:04.261Z,20.90
2018-01-13T17:47:31.834Z,22.07
2018-01-13T17:49:59.402Z,21.33
2018-01-13T17:52:27.381Z,23.00
2018-01-13T17:54:54.878Z,22.03
2018-01-13T17:57:22.387Z,24.47
2018-01-13T17:59:50.674Z,17.60
2018-01-13T18:02:18.196Z,16.07
2018-01-13T18:04:45.708Z,19.60
2018-01-13T18:07:13.202Z,24.13
2018-01-13T18:09:40.690Z,20.07
2018-01-13T18:12:08.183Z,21.10
2018-01-13T18:14:36.461Z,22.70
2018-01-13T18:17:04.741Z,15.33
2018-01-13T18:19:33.082Z,20.67
2018-01-13T18:22:00.598Z,20.43
2018-01-13T18:24:28.140Z,24.90
2018-01-13T18:26:55.655Z,21.60
2018-01-13T18:29:23.142Z,23.60
2018-01-13T18:31:50.655Z,19.77
2018-01-13T18:34:18.168Z,20.57
2018-01-13T18:36:46.422Z,17.80
2018-01-13T18:39:13.932Z,26.23
2018-01-13T18:41:41.441Z,24.70
2018-01-13T18:44:08.944Z,21.87
2018-01-13T18:46:36.438Z,25.13
2018-01-13T18:49:03.938Z,21.43
2018-01-13T18:51:32.231Z,19.80
2018-01-13T18:54:00.623Z,25.13
2018-01-13T18:56:28.171Z,24.43
2018-01-13T18:58:55.710Z,27.17
2018-01-13T19:01:23.273Z,27.43
2018-01-13T19:03:50.846Z,23.67
2018-01-13T19:06:18.417Z,23.70
2018-01-13T19:08:45.939Z,23.47
2018-01-13T19:11:14.204Z,26.60
2018-01-13T19:13:41.713Z,23.83
2018-01-13T19:16:09.260Z,26.93
2018-01-13T19:18:36.760Z,21.77
2018-01-13T19:21:04.260Z,28.13
2018-01-13T19:23:31.740Z,22.97
2018-01-13T19:25:59.250Z,24.67
2018-01-13T19:28:26.763Z,24.70
2018-01-13T19:30:54.272Z,24.60
2018-01-13T19:33:22.593Z,26.17
2018-01-13T19:35:50.108Z,24.80
2018-01-13T19:38:17.635Z,24.40
2018-01-13T19:40:45.146Z,31.07
2018-01-13T19:43:12.650Z,28.63
2018-01-13T19:45:40.163Z,27.90
2018-01-13T19:48:07.674Z,26.10
2018-01-13T19:50:35.186Z,22.60
2018-01-13T19:53:02.743Z,27.37
2018-01-13T19:55:30.272Z,32.23
2018-01-13T19:57:57.776Z,28.60
2018-01-13T20:00:25.287Z,27.73
2018-01-13T20:02:52.838Z,19.60
2018-01-13T20:05:20.783Z,17.87
2018-01-13T20:07:48.301Z,30.63
2018-01-13T20:10:15.811Z,25.90
2018-01-13T20:12:43.301Z,23.60
2018-01-13T20:15:10.833Z,22.53
2018-01-13T20:17:38.461Z,25.00
2018-01-13T20:20:05.974Z,26.60
2018-01-13T20:22:33.498Z,27.43
2018-01-13T20:25:00.995Z,24.80
2018-01-13T20:27:28.581Z,25.03
2018-01-13T20:29:56.120Z,27.83
2018-01-13T20:32:23.642Z,27.97
2018-01-13T20:34:51.539Z,24.83
2018-01-13T20:37:19.307Z,29.03
2018-01-13T20:39:46.825Z,22.53
2018-01-13T20:42:14.330Z,25.80
2018-01-13T20:44:42.585Z,26.03
2018-01-13T20:47:10.583Z,29.47
2018-01-13T20:49:38.079Z,29.83
2018-01-13T20:52:05.580Z,24.13
2018-01-13T20:54:34.245Z,27.47
2018-01-13T20:57:01.898Z,23.30
2018-01-13T20:59:30.225Z,29.00
2018-01-13T21:01:59.563Z,24.20
2018-01-13T21:04:27.813Z,24.33
2018-01-13T21:06:55.384Z,15.27
2018-01-13T21:09:22.854Z,33.87
2018-01-13T21:11:50.409Z,32.60
2018-01-13T21:14:17.908Z,34.60
2018-01-13T21:16:45.439Z,27.27
2018-01-13T21:19:12.947Z,30.20
2018-01-13T21:21:40.459Z,30.13
2018-01-13T21:24:08.017Z,28.67
2018-01-13T21:26:35.523Z,26.03
2018-01-13T21:29:03.059Z,24.57
2018-01-13T21:31:30.537Z,21.60
2018-01-13T21:33:58.035Z,26.90
2018-01-13T21:36:25.544Z,28.77
2018-01-13T21:38:53.802Z,29.30
2018-01-13T21:41:21.333Z,28.53
2018-01-13T21:43:48.819Z,31.90
2018-01-13T21:46:16.301Z,31.00
2018-01-13T21:48:44.557Z,24.23
2018-01-13T21:51:12.028Z,16.63
2018-01-13T21:53:39.520Z,34.73
2018-01-13T21:56:06.999Z,22.80
2018-01-13T21:58:35.244Z,20.77
2018-01-13T22:01:02.736Z,24.90
2018-01-13T22:03:30.220Z,19.27
2018-01-13T22:05:57.747Z,27.70
2018-01-13T22:08:25.242Z,23.97
2018-01-13T22:10:52.766Z,25.57
2018-01-13T22:13:20.257Z,25.30
2018-01-13T22:15:48.502Z,28.50
2018-01-13T22:18:15.996Z,24.17
2018-01-13T22:20:44.256Z,23.50
2018-01-13T22:23:11.755Z,23.07
2018-01-13T22:25:39.278Z,26.47
2018-01-13T22:28:06.757Z,24.67
2018-01-13T22:30:35.029Z,23.70
2018-01-13T22:33:02.509Z,23.03
2018-01-13T22:35:29.992Z,26.47
2018-01-13T22:37:57.503Z,23.30
2018-01-13T22:40:24.988Z,27.20
2018-01-13T22:42:52.492Z,23.03
2018-01-13T22:45:19.969Z,18.60
2018-01-13T22:47:47.460Z,21.10
2018-01-13T22:50:14.971Z,32.37
2018-01-13T22:52:42.425Z,16.50
2018-01-13T22:55:10.154Z,24.57
2018-01-13T22:57:37.647Z,22.20
2018-01-13T23:00:05.178Z,21.93
2018-01-13T23:02:32.664Z,27.30
2018-01-13T23:05:00.934Z,17.93
2018-01-13T23:07:28.475Z,25.60
2018-01-13T23:09:56.020Z,23.10
2018-01-13T23:12:23.561Z,23.20
2018-01-13T23:14:51.913Z,22.10
2018-01-13T23:17:19.375Z,21.47
2018-01-13T23:19:46.873Z,28.53
2018-01-13T23:22:14.360Z,25.83
2018-01-13T23:24:41.838Z,25.00
2018-01-13T23:27:21.898Z,26.57
2018-01-13T23:29:49.375Z,30.00
2018-01-13T23:32:16.887Z,21.07
2018-01-13T23:34:44.393Z,20.20
2018-01-13T23:37:11.873Z,20.30
2018-01-13T23:39:39.362Z,22.27
2018-01-13T23:42:06.849Z,26.93
2018-01-13T23:44:34.366Z,20.57
2018-01-13T23:47:01.854Z,23.03
2018-01-13T23:49:29.410Z,28.13
2018-01-13T23:51:56.974Z,22.70
2018-01-13T23:54:25.223Z,24.30
2018-01-13T23:56:52.719Z,34.20
2018-01-13T23:59:20.217Z,22.50
